Akiachak, Alaska
Current Conditions -  °F | °C
As of 3:56 PM on Monday 26 Jan 2015 (Local Time) from PFKW Reporting Station
Clear Clear  
Wind Chill: -29°   Ceiling: Unl
Heat Index: -7°   Visibility: 10mi
Dew Point: -14°   Wind: 16mph
Humidity: 72%   Direction: 30°NNE
Pressure: 29.8"   Gusts: NA
Location:  60.91°N, 161.44°W
Report Text: PFKW 270056Z AUTO 03014KT 10SM CLR M22/M26 A2980 RMK AO2 SLP091 T12171256 FZRANO
Loading
Personal Weather Stations






























Interactive Weather Map New forecast layout! Learn more

10-Day Weather Forecast

Advertisements
Track Severe Weather on mobile